Time;durP1;ratioP1;P1;durP2;ratioP2;P2;SDS_P1;SDS_P2;PMS_P1;PMS_P2;Temp;Humidity;BMP_temperature;BMP_pressure;BME280_temperature;BME280_humidity;BME280_pressure;Samples;Min_cycle;Max_cycle;Signal;HPM_P1;HPM_P2
2023/10/29 00:00:58;;;;;;;3.97;2.30;;;;;;;;;;5091272;28;20111;-71
2023/10/29 00:03:23;;;;;;;3.25;2.10;;;;;;;;;;5091093;28;20440;-70
2023/10/29 00:05:49;;;;;;;3.63;2.40;;;;;;;;;;5091720;28;20081;-71
2023/10/29 00:08:14;;;;;;;3.53;1.90;;;;;;;;;;5091078;28;20388;-71
2023/10/29 00:10:39;;;;;;;3.45;1.90;;;;;;;;;;5092274;28;20039;-67
2023/10/29 00:13:05;;;;;;;4.45;2.03;;;;;;;;;;5111953;28;20031;-72
2023/10/29 00:15:31;;;;;;;3.30;1.90;;;;;;;;;;5109397;28;20047;-71
2023/10/29 00:17:57;;;;;;;4.00;1.85;;;;;;;;;;5093625;28;20595;-71
2023/10/29 00:20:22;;;;;;;2.78;1.90;;;;;;;;;;5101111;28;20039;-71
2023/10/29 00:22:48;;;;;;;4.18;2.15;;;;;;;;;;5110005;28;20095;-70
2023/10/29 00:25:13;;;;;;;3.60;1.90;;;;;;;;;;5095248;28;20059;-70
2023/10/29 00:27:38;;;;;;;3.38;2.13;;;;;;;;;;5071652;28;20043;-69
2023/10/29 00:30:05;;;;;;;3.75;1.98;;;;;;;;;;5090413;28;20031;-70
2023/10/29 00:32:30;;;;;;;7.50;1.90;;;;;;;;;;5090997;28;20032;-71
2023/10/29 00:34:57;;;;;;;2.85;1.73;;;;;;;;;;5089021;28;20042;-71
2023/10/29 00:37:22;;;;;;;3.47;1.70;;;;;;;;;;5094268;28;20032;-72
2023/10/29 00:39:48;;;;;;;2.45;1.70;;;;;;;;;;5106321;28;20084;-70
2023/10/29 00:42:13;;;;;;;5.20;1.90;;;;;;;;;;5072848;28;20127;-72
2023/10/29 00:44:38;;;;;;;2.70;1.60;;;;;;;;;;5091483;28;20035;-69
2023/10/29 00:47:08;;;;;;;2.65;1.60;;;;;;;;;;5093936;28;20031;-72
2023/10/29 00:49:34;;;;;;;3.08;1.55;;;;;;;;;;5090890;28;20028;-71
2023/10/29 00:52:00;;;;;;;3.95;1.70;;;;;;;;;;5089662;28;20031;-73
2023/10/29 00:54:26;;;;;;;4.13;1.50;;;;;;;;;;5089902;28;20039;-72
2023/10/29 00:56:53;;;;;;;4.10;1.77;;;;;;;;;;5086872;28;20084;-72
2023/10/29 00:59:21;;;;;;;3.15;1.50;;;;;;;;;;5107435;28;20038;-73
2023/10/29 01:01:47;;;;;;;3.03;1.60;;;;;;;;;;5100618;28;20028;-72
2023/10/29 01:04:12;;;;;;;4.20;1.58;;;;;;;;;;5097112;28;20114;-72
2023/10/29 01:06:40;;;;;;;3.20;1.42;;;;;;;;;;5098043;28;20099;-72
2023/10/29 01:09:07;;;;;;;3.22;1.65;;;;;;;;;;5076000;28;20028;-73
2023/10/29 01:11:32;;;;;;;4.65;1.95;;;;;;;;;;5076400;28;20491;-73
2023/10/29 01:13:58;;;;;;;2.75;1.55;;;;;;;;;;5111660;28;20039;-72
2023/10/29 01:16:24;;;;;;;3.60;1.52;;;;;;;;;;5090164;28;20456;-72
2023/10/29 01:18:49;;;;;;;4.38;1.65;;;;;;;;;;5093341;28;20031;-72
2023/10/29 01:21:16;;;;;;;1.92;1.30;;;;;;;;;;5095178;28;20040;-72
2023/10/29 01:23:41;;;;;;;2.53;1.48;;;;;;;;;;5097599;28;20088;-69
2023/10/29 01:26:06;;;;;;;4.07;1.50;;;;;;;;;;5094845;28;20035;-73
2023/10/29 01:28:32;;;;;;;3.10;1.50;;;;;;;;;;5095037;28;20032;-72
2023/10/29 01:30:59;;;;;;;2.47;1.50;;;;;;;;;;5095562;28;20329;-71
2023/10/29 01:33:24;;;;;;;3.65;1.70;;;;;;;;;;5117040;28;20028;-71
2023/10/29 01:35:50;;;;;;;3.92;1.48;;;;;;;;;;5111598;28;20035;-70
2023/10/29 01:38:15;;;;;;;3.88;1.48;;;;;;;;;;5112252;28;20032;-71
2023/10/29 01:40:41;;;;;;;3.60;1.40;;;;;;;;;;5096923;28;20035;-69
2023/10/29 01:43:06;;;;;;;3.60;1.60;;;;;;;;;;5094107;28;20117;-72
2023/10/29 01:45:31;;;;;;;3.08;1.30;;;;;;;;;;5099339;28;20028;-71
2023/10/29 01:47:57;;;;;;;6.55;1.55;;;;;;;;;;5090204;28;20027;-71
2023/10/29 01:50:22;;;;;;;4.70;1.60;;;;;;;;;;5094044;28;20540;-70
2023/10/29 01:52:48;;;;;;;2.97;1.60;;;;;;;;;;5113696;28;20031;-71
2023/10/29 01:55:14;;;;;;;3.88;1.67;;;;;;;;;;5091608;28;20036;-71
2023/10/29 01:57:39;;;;;;;3.10;1.60;;;;;;;;;;5075495;28;20034;-71
2023/10/29 02:00:06;;;;;;;2.17;1.27;;;;;;;;;;5092274;28;20255;-72
2023/10/29 02:02:32;;;;;;;2.95;1.50;;;;;;;;;;5107216;28;20114;-71
2023/10/29 02:04:58;;;;;;;2.10;1.42;;;;;;;;;;5100101;28;20106;-72
2023/10/29 02:07:23;;;;;;;4.13;1.73;;;;;;;;;;5099598;28;20111;-71
2023/10/29 02:09:49;;;;;;;4.78;1.60;;;;;;;;;;5093540;28;20023;-71
2023/10/29 02:12:15;;;;;;;2.28;1.40;;;;;;;;;;5089420;28;20122;-72
2023/10/29 02:14:40;;;;;;;3.40;1.40;;;;;;;;;;5097085;28;20123;-69
2023/10/29 02:17:06;;;;;;;2.25;1.30;;;;;;;;;;5106960;28;20031;-71
2023/10/29 02:19:31;;;;;;;2.47;1.42;;;;;;;;;;5077500;28;20036;-72
2023/10/29 02:21:57;;;;;;;4.13;1.40;;;;;;;;;;5092337;28;20342;-71
2023/10/29 02:24:22;;;;;;;4.53;1.70;;;;;;;;;;5101629;28;20104;-72
2023/10/29 02:26:47;;;;;;;3.30;1.48;;;;;;;;;;5099839;28;20032;-69
2023/10/29 02:29:13;;;;;;;2.72;1.40;;;;;;;;;;5093906;28;20024;-71
2023/10/29 02:31:39;;;;;;;3.38;1.35;;;;;;;;;;5110384;28;20392;-71
2023/10/29 02:34:07;;;;;;;3.53;1.42;;;;;;;;;;5074887;28;20511;-71
2023/10/29 02:36:33;;;;;;;1.50;1.40;;;;;;;;;;5095246;28;20036;-71
2023/10/29 02:38:58;;;;;;;3.17;1.38;;;;;;;;;;5103743;28;20024;-71
2023/10/29 02:41:24;;;;;;;3.92;1.45;;;;;;;;;;5092857;28;20085;-71
2023/10/29 02:43:49;;;;;;;1.73;1.30;;;;;;;;;;5091970;28;20035;-68
2023/10/29 02:46:16;;;;;;;2.15;1.40;;;;;;;;;;5093990;28;20169;-72
2023/10/29 02:48:41;;;;;;;2.08;1.40;;;;;;;;;;5114156;28;20054;-71
2023/10/29 02:51:11;;;;;;;4.00;1.60;;;;;;;;;;5087280;28;20641;-71
2023/10/29 02:53:36;;;;;;;3.00;1.50;;;;;;;;;;5074545;28;20387;-72
2023/10/29 02:56:02;;;;;;;2.65;1.33;;;;;;;;;;5094742;28;20795;-71
2023/10/29 02:58:27;;;;;;;2.70;1.40;;;;;;;;;;5092584;28;20073;-72
2023/10/29 03:00:53;;;;;;;4.50;1.77;;;;;;;;;;5091557;28;20024;-71
2023/10/29 03:03:18;;;;;;;4.38;1.48;;;;;;;;;;5111365;28;20384;-72
2023/10/29 03:05:44;;;;;;;2.15;1.30;;;;;;;;;;5090730;28;20032;-70
2023/10/29 03:08:09;;;;;;;2.50;1.30;;;;;;;;;;5093463;28;20487;-71
2023/10/29 03:10:38;;;;;;;2.63;1.35;;;;;;;;;;5096320;28;20098;-70
2023/10/29 03:13:03;;;;;;;3.72;1.67;;;;;;;;;;5091958;28;20088;-72
2023/10/29 03:15:28;;;;;;;3.60;1.42;;;;;;;;;;5092216;28;20024;-71
2023/10/29 03:17:54;;;;;;;1.92;1.27;;;;;;;;;;5080068;28;20460;-70
2023/10/29 03:20:20;;;;;;;2.47;1.40;;;;;;;;;;5099478;28;20032;-68
2023/10/29 03:22:46;;;;;;;2.35;1.27;;;;;;;;;;5092562;28;20040;-71
2023/10/29 03:25:11;;;;;;;3.45;1.33;;;;;;;;;;5090887;28;20365;-71
2023/10/29 03:27:37;;;;;;;2.83;1.30;;;;;;;;;;5073341;28;20028;-73
2023/10/29 03:30:04;;;;;;;2.30;1.10;;;;;;;;;;5090441;28;20024;-73
2023/10/29 03:32:30;;;;;;;1.60;1.27;;;;;;;;;;5097862;28;20242;-72
2023/10/29 03:34:55;;;;;;;5.65;1.40;;;;;;;;;;5090857;28;20036;-72
2023/10/29 03:37:20;;;;;;;2.55;1.30;;;;;;;;;;5102467;28;20024;-73
2023/10/29 03:39:46;;;;;;;2.95;1.17;;;;;;;;;;5093929;28;20468;-72
2023/10/29 03:42:11;;;;;;;2.03;1.10;;;;;;;;;;5091008;28;20031;-72
2023/10/29 03:44:37;;;;;;;2.25;1.10;;;;;;;;;;5095358;28;20430;-73
2023/10/29 03:47:02;;;;;;;2.10;1.30;;;;;;;;;;5105901;28;20110;-72
2023/10/29 03:49:28;;;;;;;2.42;1.20;;;;;;;;;;5103935;28;20024;-73
2023/10/29 03:51:53;;;;;;;3.88;1.58;;;;;;;;;;5105960;28;20032;-69
2023/10/29 03:54:19;;;;;;;2.08;1.20;;;;;;;;;;5095198;28;20078;-72
2023/10/29 03:56:44;;;;;;;1.85;1.20;;;;;;;;;;5095933;28;20058;-71
2023/10/29 03:59:10;;;;;;;1.50;1.15;;;;;;;;;;5092124;28;20043;-71
2023/10/29 04:01:35;;;;;;;4.30;1.30;;;;;;;;;;5094433;28;20035;-72
2023/10/29 04:04:03;;;;;;;3.22;1.30;;;;;;;;;;5095328;28;20115;-72
2023/10/29 04:06:28;;;;;;;1.98;1.20;;;;;;;;;;5093420;28;20024;-72
2023/10/29 04:08:54;;;;;;;2.95;1.08;;;;;;;;;;5090523;28;20429;-68
2023/10/29 04:11:19;;;;;;;2.35;1.10;;;;;;;;;;5091865;28;20070;-72
2023/10/29 04:13:45;;;;;;;3.30;1.25;;;;;;;;;;5080654;28;20031;-72
2023/10/29 04:16:10;;;;;;;1.38;1.15;;;;;;;;;;5099481;28;20047;-72
2023/10/29 04:18:35;;;;;;;1.60;1.15;;;;;;;;;;5090339;28;20095;-72
2023/10/29 04:21:03;;;;;;;1.88;0.90;;;;;;;;;;5091785;28;20035;-71
2023/10/29 04:23:28;;;;;;;3.53;1.20;;;;;;;;;;5091491;28;20202;-72
2023/10/29 04:25:54;;;;;;;2.20;1.10;;;;;;;;;;5091425;28;20130;-68
2023/10/29 04:28:19;;;;;;;1.85;1.10;;;;;;;;;;5096852;28;20043;-72
2023/10/29 04:30:44;;;;;;;1.80;0.93;;;;;;;;;;5107987;28;20035;-71
2023/10/29 04:33:10;;;;;;;1.15;1.00;;;;;;;;;;5096833;28;20062;-72
2023/10/29 04:35:35;;;;;;;1.48;0.95;;;;;;;;;;5094563;28;20020;-71
2023/10/29 04:38:00;;;;;;;1.30;1.00;;;;;;;;;;5092673;28;20028;-72
2023/10/29 04:40:26;;;;;;;2.08;1.08;;;;;;;;;;5090580;28;20031;-72
2023/10/29 04:42:51;;;;;;;1.88;1.05;;;;;;;;;;5072640;28;20384;-70
2023/10/29 04:45:17;;;;;;;1.48;1.10;;;;;;;;;;5089493;28;20043;-73
2023/10/29 04:47:42;;;;;;;1.45;1.10;;;;;;;;;;5090715;28;20111;-72
2023/10/29 04:50:08;;;;;;;2.85;1.10;;;;;;;;;;5090041;28;20036;-72
2023/10/29 04:52:33;;;;;;;1.75;1.00;;;;;;;;;;5090187;28;20118;-70
2023/10/29 04:55:01;;;;;;;3.00;0.80;;;;;;;;;;5111414;28;20128;-71
2023/10/29 04:57:28;;;;;;;1.55;1.25;;;;;;;;;;5113220;28;20028;-72
2023/10/29 04:59:53;;;;;;;1.85;1.10;;;;;;;;;;5091809;28;20093;-70
2023/10/29 05:02:19;;;;;;;2.30;1.10;;;;;;;;;;5076248;28;20048;-71
2023/10/29 05:04:44;;;;;;;3.00;1.00;;;;;;;;;;5105728;28;20024;-71
2023/10/29 05:07:09;;;;;;;3.80;0.90;;;;;;;;;;5089120;28;20445;-71
2023/10/29 05:09:35;;;;;;;1.60;0.95;;;;;;;;;;5090566;28;20031;-71
2023/10/29 05:12:01;;;;;;;1.77;1.10;;;;;;;;;;5089637;28;20040;-71
2023/10/29 05:14:27;;;;;;;1.85;1.10;;;;;;;;;;5091189;28;20050;-72
2023/10/29 05:16:52;;;;;;;2.03;1.05;;;;;;;;;;5089986;28;20524;-71
2023/10/29 05:19:18;;;;;;;3.63;1.25;;;;;;;;;;5090134;28;20863;-71
2023/10/29 05:21:44;;;;;;;2.40;1.30;;;;;;;;;;5089819;28;20111;-71
2023/10/29 05:24:09;;;;;;;3.45;1.20;;;;;;;;;;5072033;28;20059;-72
2023/10/29 05:26:36;;;;;;;1.42;1.10;;;;;;;;;;5090163;28;20032;-71
2023/10/29 05:29:03;;;;;;;1.67;1.20;;;;;;;;;;5089921;28;20039;-71
2023/10/29 05:31:29;;;;;;;3.35;1.20;;;;;;;;;;5091490;28;20071;-70
2023/10/29 05:33:54;;;;;;;2.42;1.17;;;;;;;;;;5091010;28;20063;-71
2023/10/29 05:36:19;;;;;;;2.05;1.00;;;;;;;;;;5088911;28;20245;-71
2023/10/29 05:38:48;;;;;;;1.75;1.10;;;;;;;;;;5094151;28;20032;-71
2023/10/29 05:41:13;;;;;;;2.33;1.10;;;;;;;;;;5090210;28;20475;-72
2023/10/29 05:43:39;;;;;;;2.15;1.00;;;;;;;;;;5072903;28;20065;-72
2023/10/29 05:46:04;;;;;;;1.00;0.90;;;;;;;;;;5090292;28;20032;-72
2023/10/29 05:48:29;;;;;;;3.10;1.15;;;;;;;;;;5074459;28;20109;-71
2023/10/29 05:50:55;;;;;;;1.95;1.15;;;;;;;;;;5093790;28;20448;-72
2023/10/29 05:53:20;;;;;;;1.83;1.17;;;;;;;;;;5092877;28;20047;-71
2023/10/29 05:55:46;;;;;;;1.20;1.10;;;;;;;;;;5076016;28;20366;-71
2023/10/29 05:58:11;;;;;;;2.92;1.25;;;;;;;;;;5107120;28;20028;-71
2023/10/29 06:00:36;;;;;;;2.88;1.08;;;;;;;;;;5103490;28;20396;-69
2023/10/29 06:03:02;;;;;;;2.47;1.05;;;;;;;;;;5096188;28;20150;-70
2023/10/29 06:05:28;;;;;;;2.10;1.20;;;;;;;;;;5109762;28;20028;-70
2023/10/29 06:07:53;;;;;;;2.78;1.10;;;;;;;;;;5113363;28;20023;-71
2023/10/29 06:10:21;;;;;;;2.55;1.10;;;;;;;;;;5075624;28;20190;-71
2023/10/29 06:12:47;;;;;;;3.42;1.20;;;;;;;;;;5095229;28;20020;-71
2023/10/29 06:15:12;;;;;;;2.35;1.20;;;;;;;;;;5093775;28;20345;-72
2023/10/29 06:17:38;;;;;;;2.15;1.20;;;;;;;;;;5094235;28;20032;-71
2023/10/29 06:20:05;;;;;;;3.35;1.00;;;;;;;;;;5076875;28;20028;-71
2023/10/29 06:22:32;;;;;;;2.03;1.00;;;;;;;;;;5114701;28;20031;-72
2023/10/29 06:24:57;;;;;;;3.35;1.25;;;;;;;;;;5106808;28;20070;-73
2023/10/29 06:27:23;;;;;;;2.92;0.98;;;;;;;;;;5075279;28;20532;-69
2023/10/29 06:29:48;;;;;;;3.50;1.00;;;;;;;;;;5094664;28;20081;-70
2023/10/29 06:32:14;;;;;;;2.42;1.00;;;;;;;;;;5103094;28;20031;-71
2023/10/29 06:34:39;;;;;;;1.52;1.00;;;;;;;;;;5113845;28;20102;-71
2023/10/29 06:37:05;;;;;;;2.60;1.13;;;;;;;;;;5113447;28;20096;-70
2023/10/29 06:39:31;;;;;;;2.53;1.20;;;;;;;;;;5114440;28;20046;-71
2023/10/29 06:41:56;;;;;;;3.15;1.15;;;;;;;;;;5115092;28;20036;-69
2023/10/29 06:44:22;;;;;;;1.90;1.00;;;;;;;;;;5090726;28;20030;-70
2023/10/29 06:46:47;;;;;;;4.00;1.00;;;;;;;;;;5110205;28;20059;-71
2023/10/29 06:49:12;;;;;;;4.32;1.00;;;;;;;;;;5108469;28;20028;-71
2023/10/29 06:51:38;;;;;;;2.05;1.10;;;;;;;;;;5094079;28;20372;-73
2023/10/29 06:54:05;;;;;;;1.90;0.95;;;;;;;;;;5074764;28;20115;-77
2023/10/29 06:56:30;;;;;;;4.45;1.17;;;;;;;;;;5093768;28;20031;-74
2023/10/29 06:58:56;;;;;;;3.83;1.10;;;;;;;;;;5092804;28;20028;-77
2023/10/29 07:01:24;;;;;;;2.33;0.98;;;;;;;;;;5074909;28;20054;-78
2023/10/29 07:03:49;;;;;;;2.92;1.42;;;;;;;;;;5093519;28;20380;-74
2023/10/29 07:06:16;;;;;;;3.50;1.30;;;;;;;;;;5108455;28;20034;-72
2023/10/29 07:08:45;;;;;;;2.20;1.00;;;;;;;;;;5079307;28;20032;-71
2023/10/29 07:11:10;;;;;;;5.20;1.08;;;;;;;;;;5094720;28;20122;-72
2023/10/29 07:13:36;;;;;;;2.42;0.93;;;;;;;;;;5114019;28;20138;-73
2023/10/29 07:16:02;;;;;;;2.13;0.90;;;;;;;;;;5095327;28;20062;-76
2023/10/29 07:18:28;;;;;;;2.58;1.00;;;;;;;;;;5081291;28;20036;-73
2023/10/29 07:20:54;;;;;;;2.80;0.93;;;;;;;;;;5075111;28;20024;-74
2023/10/29 07:23:20;;;;;;;3.63;1.10;;;;;;;;;;5092480;28;20116;-75
2023/10/29 07:25:47;;;;;;;3.83;1.10;;;;;;;;;;5074492;28;20530;-76
2023/10/29 07:28:13;;;;;;;4.18;1.20;;;;;;;;;;5073978;28;20058;-75
2023/10/29 07:30:44;;;;;;;3.08;1.00;;;;;;;;;;5092750;28;20081;-73
2023/10/29 07:33:10;;;;;;;3.47;1.10;;;;;;;;;;5092061;28;20472;-76
2023/10/29 07:35:37;;;;;;;2.28;0.90;;;;;;;;;;5092829;28;20414;-68
2023/10/29 07:38:03;;;;;;;3.65;1.17;;;;;;;;;;5104091;28;20487;-76
2023/10/29 07:40:28;;;;;;;1.75;0.88;;;;;;;;;;5093102;28;20032;-76
2023/10/29 07:42:53;;;;;;;3.22;1.20;;;;;;;;;;5092628;28;20028;-76
2023/10/29 07:45:19;;;;;;;1.45;0.98;;;;;;;;;;5092087;28;20372;-74
2023/10/29 07:47:45;;;;;;;2.10;0.90;;;;;;;;;;5095652;28;20039;-74
2023/10/29 07:50:10;;;;;;;4.28;1.13;;;;;;;;;;5091692;28;20032;-72
2023/10/29 07:52:39;;;;;;;2.97;1.10;;;;;;;;;;5092584;28;20533;-74
2023/10/29 07:55:06;;;;;;;3.17;1.20;;;;;;;;;;5092120;28;20042;-73
2023/10/29 07:57:32;;;;;;;2.15;1.08;;;;;;;;;;5074264;28;20090;-75
2023/10/29 07:59:57;;;;;;;5.78;1.23;;;;;;;;;;5095887;28;20023;-78
2023/10/29 08:02:23;;;;;;;6.53;1.40;;;;;;;;;;5082695;28;20036;-79
2023/10/29 08:04:48;;;;;;;2.92;1.00;;;;;;;;;;5112867;28;20118;-79
2023/10/29 08:07:14;;;;;;;3.47;1.13;;;;;;;;;;5107474;28;20062;-75
2023/10/29 08:09:40;;;;;;;3.80;1.20;;;;;;;;;;5092341;28;20362;-74
2023/10/29 08:12:05;;;;;;;3.80;1.10;;;;;;;;;;5111585;28;20092;-71
2023/10/29 08:14:31;;;;;;;2.33;0.93;;;;;;;;;;5112225;28;20367;-75
2023/10/29 08:16:56;;;;;;;2.83;1.00;;;;;;;;;;5112179;28;20023;-75
2023/10/29 08:19:23;;;;;;;5.03;1.05;;;;;;;;;;5093580;28;20030;-76
2023/10/29 08:21:49;;;;;;;2.38;1.00;;;;;;;;;;5112673;28;20039;-73
2023/10/29 08:24:14;;;;;;;4.45;1.30;;;;;;;;;;5114956;28;20476;-78
2023/10/29 08:26:42;;;;;;;2.72;1.05;;;;;;;;;;5102062;28;20055;-75
2023/10/29 08:29:08;;;;;;;3.45;1.23;;;;;;;;;;5112989;28;20054;-71
2023/10/29 08:31:33;;;;;;;3.00;1.15;;;;;;;;;;5112309;28;20104;-74
2023/10/29 08:33:59;;;;;;;3.40;1.00;;;;;;;;;;5112674;28;20157;-72
2023/10/29 08:36:25;;;;;;;2.10;1.05;;;;;;;;;;5093464;28;20035;-72
2023/10/29 08:38:50;;;;;;;5.72;1.20;;;;;;;;;;5111482;28;20028;-75
2023/10/29 08:41:16;;;;;;;4.43;1.50;;;;;;;;;;5078901;28;20043;-77
2023/10/29 08:43:42;;;;;;;5.47;1.58;;;;;;;;;;5091494;28;20541;-75
2023/10/29 08:46:08;;;;;;;3.95;1.08;;;;;;;;;;5109852;28;20043;-73
2023/10/29 08:48:33;;;;;;;3.58;1.17;;;;;;;;;;5075913;28;20036;-73
2023/10/29 08:50:59;;;;;;;3.22;1.20;;;;;;;;;;5092975;28;20028;-75
2023/10/29 08:53:24;;;;;;;5.53;1.25;;;;;;;;;;5090603;28;20036;-73
2023/10/29 08:55:52;;;;;;;5.28;1.23;;;;;;;;;;5079217;28;20029;-73
2023/10/29 08:58:20;;;;;;;4.40;1.23;;;;;;;;;;5098707;28;20027;-75
2023/10/29 09:00:46;;;;;;;4.00;1.40;;;;;;;;;;5105553;28;20036;-76
2023/10/29 09:03:13;;;;;;;3.90;1.10;;;;;;;;;;5073028;28;20103;-72
2023/10/29 09:05:42;;;;;;;3.33;1.10;;;;;;;;;;5091260;28;20053;-73
2023/10/29 09:08:08;;;;;;;5.13;1.15;;;;;;;;;;5091445;28;20103;-72
2023/10/29 09:10:33;;;;;;;1.80;0.90;;;;;;;;;;5090795;28;20524;-76
2023/10/29 09:12:59;;;;;;;4.28;1.50;;;;;;;;;;5073479;28;20388;-77
2023/10/29 09:15:25;;;;;;;3.75;1.02;;;;;;;;;;5106316;28;20039;-78
2023/10/29 09:17:50;;;;;;;4.00;1.13;;;;;;;;;;5082953;28;20028;-77
2023/10/29 09:20:16;;;;;;;4.22;1.15;;;;;;;;;;5111134;28;20389;-76
2023/10/29 09:22:41;;;;;;;2.78;1.00;;;;;;;;;;5113574;28;20035;-77
2023/10/29 09:25:07;;;;;;;4.32;1.30;;;;;;;;;;5115662;28;20051;-77
2023/10/29 09:27:32;;;;;;;3.22;0.93;;;;;;;;;;5096793;28;20027;-77
2023/10/29 09:29:58;;;;;;;2.88;1.17;;;;;;;;;;5115214;28;20035;-77
2023/10/29 09:32:26;;;;;;;3.58;0.98;;;;;;;;;;5093251;28;20112;-77
2023/10/29 09:34:54;;;;;;;3.20;1.10;;;;;;;;;;5077156;28;20027;-78
2023/10/29 09:37:21;;;;;;;2.75;1.20;;;;;;;;;;5094576;28;20060;-77
2023/10/29 09:39:47;;;;;;;3.53;1.15;;;;;;;;;;5094732;28;20031;-77
2023/10/29 09:42:18;;;;;;;3.50;1.05;;;;;;;;;;5094411;28;20469;-72
2023/10/29 09:44:45;;;;;;;3.70;1.00;;;;;;;;;;5095108;28;20024;-77
2023/10/29 09:47:19;;;;;;;2.30;1.00;;;;;;;;;;5076811;28;20027;-71
2023/10/29 09:49:45;;;;;;;3.17;1.10;;;;;;;;;;5094912;28;20081;-75
2023/10/29 09:52:11;;;;;;;2.80;1.10;;;;;;;;;;5076853;28;20036;-71
2023/10/29 09:54:40;;;;;;;5.00;1.13;;;;;;;;;;5076341;28;20047;-75
2023/10/29 09:57:06;;;;;;;3.17;1.02;;;;;;;;;;5094407;28;20036;-76
2023/10/29 09:59:35;;;;;;;2.30;1.05;;;;;;;;;;5094072;28;20117;-78
2023/10/29 10:02:01;;;;;;;3.13;1.05;;;;;;;;;;5094674;28;20380;-78
2023/10/29 10:04:26;;;;;;;3.03;1.10;;;;;;;;;;5075842;28;20035;-76
2023/10/29 10:06:53;;;;;;;2.45;1.10;;;;;;;;;;5094903;28;20028;-76
2023/10/29 10:09:19;;;;;;;2.75;1.13;;;;;;;;;;5100109;28;20040;-76
2023/10/29 10:11:45;;;;;;;2.08;1.00;;;;;;;;;;5083356;28;20376;-76
2023/10/29 10:14:26;;;;;;;3.92;1.20;;;;;;;;;;5095858;28;20028;-77
2023/10/29 10:17:17;;;;;;;3.00;1.10;;;;;;;;;;5110607;28;20058;-76
2023/10/29 10:19:43;;;;;;;2.47;0.98;;;;;;;;;;5109800;28;20055;-76
2023/10/29 10:22:09;;;;;;;2.38;0.70;;;;;;;;;;5114805;28;20395;-75
2023/10/29 10:24:40;;;;;;;4.50;1.25;;;;;;;;;;5113846;28;20463;-74
2023/10/29 10:27:06;;;;;;;4.80;1.23;;;;;;;;;;5114821;28;20031;-77
2023/10/29 10:29:32;;;;;;;3.33;0.98;;;;;;;;;;5113239;28;20108;-76
2023/10/29 10:32:08;;;;;;;1.80;1.05;;;;;;;;;;5075753;28;20036;-76
2023/10/29 10:34:50;;;;;;;2.85;1.00;;;;;;;;;;5073992;28;20024;-77
2023/10/29 10:37:16;;;;;;;1.30;1.15;;;;;;;;;;5093725;28;20032;-72
2023/10/29 10:39:41;;;;;;;2.22;1.20;;;;;;;;;;5093987;28;20039;-76
2023/10/29 10:42:07;;;;;;;2.47;1.05;;;;;;;;;;5094138;28;20036;-75
2023/10/29 10:44:35;;;;;;;2.78;1.25;;;;;;;;;;5093185;28;20473;-76
2023/10/29 10:47:03;;;;;;;3.85;1.00;;;;;;;;;;5093807;28;20036;-76
2023/10/29 10:49:32;;;;;;;2.58;0.80;;;;;;;;;;5093232;28;20032;-76
2023/10/29 10:52:01;;;;;;;4.72;1.00;;;;;;;;;;5093571;28;20028;-76
2023/10/29 10:54:26;;;;;;;3.40;1.13;;;;;;;;;;5093102;28;20040;-76
2023/10/29 10:56:57;;;;;;;2.78;0.98;;;;;;;;;;5096874;28;20035;-75
2023/10/29 10:59:23;;;;;;;2.15;0.88;;;;;;;;;;5074420;28;20085;-75
2023/10/29 11:01:49;;;;;;;1.85;1.00;;;;;;;;;;5093434;28;20032;-75
2023/10/29 11:04:15;;;;;;;2.17;0.93;;;;;;;;;;5094078;28;20050;-76
2023/10/29 11:06:41;;;;;;;2.55;1.25;;;;;;;;;;5093069;28;20038;-76
2023/10/29 11:09:12;;;;;;;2.25;1.10;;;;;;;;;;5093607;28;20028;-76
2023/10/29 11:11:50;;;;;;;3.53;1.10;;;;;;;;;;5092559;28;20019;-76
2023/10/29 11:14:17;;;;;;;2.53;1.05;;;;;;;;;;5093742;28;20468;-71
2023/10/29 11:16:57;;;;;;;1.95;1.00;;;;;;;;;;5093322;28;20036;-74
2023/10/29 11:19:45;;;;;;;2.70;1.38;;;;;;;;;;5092707;28;20024;-75
2023/10/29 11:22:29;;;;;;;3.83;1.13;;;;;;;;;;5093086;28;20441;-75
2023/10/29 11:25:11;;;;;;;2.80;1.00;;;;;;;;;;5075565;28;20056;-76
2023/10/29 11:27:43;;;;;;;1.40;0.80;;;;;;;;;;5092446;28;20038;-75
2023/10/29 11:30:22;;;;;;;3.67;1.20;;;;;;;;;;5093080;28;20051;-76
2023/10/29 11:33:06;;;;;;;3.65;0.98;;;;;;;;;;5096528;28;20032;-74
2023/10/29 11:35:35;;;;;;;3.97;1.10;;;;;;;;;;5092137;28;20047;-75
2023/10/29 11:38:21;;;;;;;4.18;1.30;;;;;;;;;;5074905;28;20031;-75
2023/10/29 11:40:49;;;;;;;1.80;0.82;;;;;;;;;;5092740;28;20032;-75
2023/10/29 11:43:17;;;;;;;4.15;1.20;;;;;;;;;;5092840;28;20028;-76
2023/10/29 11:46:01;;;;;;;5.65;1.10;;;;;;;;;;5091840;28;20031;-77
2023/10/29 11:48:31;;;;;;;1.17;0.95;;;;;;;;;;5091833;28;20035;-75
2023/10/29 11:51:08;;;;;;;4.03;1.20;;;;;;;;;;5074279;28;20028;-77
2023/10/29 11:53:35;;;;;;;4.40;1.30;;;;;;;;;;5099594;28;20060;-75
2023/10/29 11:56:07;;;;;;;4.50;1.30;;;;;;;;;;5079432;28;20031;-76
2023/10/29 11:58:33;;;;;;;2.50;1.15;;;;;;;;;;5092919;28;20027;-76
2023/10/29 12:01:02;;;;;;;3.20;1.10;;;;;;;;;;5092409;28;20099;-76
2023/10/29 12:03:29;;;;;;;2.92;1.00;;;;;;;;;;5112193;28;20035;-76
2023/10/29 12:05:55;;;;;;;2.60;1.30;;;;;;;;;;5112920;28;20027;-76
2023/10/29 12:08:30;;;;;;;2.60;1.20;;;;;;;;;;5094097;28;20027;-73
2023/10/29 12:10:56;;;;;;;1.85;1.05;;;;;;;;;;5112670;28;20434;-76
2023/10/29 12:13:22;;;;;;;2.55;1.02;;;;;;;;;;5109868;28;20038;-73
2023/10/29 12:15:56;;;;;;;3.40;1.20;;;;;;;;;;5094056;28;20028;-74
2023/10/29 12:18:22;;;;;;;4.05;1.20;;;;;;;;;;5112013;28;20039;-73
2023/10/29 12:20:49;;;;;;;5.25;1.20;;;;;;;;;;5094193;28;20027;-74
2023/10/29 12:23:15;;;;;;;7.07;1.10;;;;;;;;;;5112768;28;20058;-75
2023/10/29 12:25:41;;;;;;;4.47;1.20;;;;;;;;;;5089977;28;20105;-75
2023/10/29 12:28:08;;;;;;;5.03;1.30;;;;;;;;;;5090847;28;20020;-75
2023/10/29 12:30:41;;;;;;;3.58;1.25;;;;;;;;;;5091311;28;20032;-74
2023/10/29 12:33:23;;;;;;;5.28;1.75;;;;;;;;;;5092150;28;20465;-76
2023/10/29 12:35:50;;;;;;;3.47;1.20;;;;;;;;;;5091551;28;20036;-76
2023/10/29 12:38:17;;;;;;;1.98;1.20;;;;;;;;;;5092345;28;20032;-76
2023/10/29 12:41:08;;;;;;;3.30;1.25;;;;;;;;;;5090708;28;20464;-76
2023/10/29 12:43:40;;;;;;;2.83;1.00;;;;;;;;;;5089299;28;20535;-75
2023/10/29 12:46:11;;;;;;;1.40;1.00;;;;;;;;;;5090482;28;20043;-75
2023/10/29 12:48:58;;;;;;;2.67;1.30;;;;;;;;;;5091144;28;20020;-75
2023/10/29 12:51:32;;;;;;;3.72;1.20;;;;;;;;;;5091094;28;20552;-72
2023/10/29 12:54:23;;;;;;;4.70;1.50;;;;;;;;;;5091875;28;20571;-78
2023/10/29 12:56:49;;;;;;;;;;;;;;;;;;5091635;28;20057;-77
2023/10/29 12:59:14;;;;;;;3.65;1.35;;;;;;;;;;5088586;28;20272;-77
2023/10/29 13:01:47;;;;;;;2.75;1.08;;;;;;;;;;5091005;28;20365;-76
2023/10/29 13:04:13;;;;;;;1.75;0.90;;;;;;;;;;5091662;28;20040;-75
2023/10/29 13:06:38;;;;;;;1.60;0.90;;;;;;;;;;5090878;28;20035;-77
2023/10/29 13:09:07;;;;;;;2.95;0.93;;;;;;;;;;5091673;28;20138;-78
2023/10/29 13:11:33;;;;;;;2.22;0.88;;;;;;;;;;5089497;28;20522;-76
2023/10/29 13:13:59;;;;;;;3.50;1.13;;;;;;;;;;5072051;28;20037;-75
2023/10/29 13:16:24;;;;;;;3.25;1.00;;;;;;;;;;5070762;28;20394;-75
2023/10/29 13:18:50;;;;;;;2.30;1.10;;;;;;;;;;5070997;28;20032;-77
2023/10/29 13:21:15;;;;;;;4.32;1.15;;;;;;;;;;5071204;28;20093;-74
2023/10/29 13:23:41;;;;;;;5.68;1.23;;;;;;;;;;5070548;28;20035;-77
2023/10/29 13:26:07;;;;;;;5.75;1.30;;;;;;;;;;5072923;28;20461;-74
2023/10/29 13:28:33;;;;;;;3.65;1.38;;;;;;;;;;5090372;28;20039;-72
2023/10/29 13:30:59;;;;;;;3.70;1.60;;;;;;;;;;5091174;28;20039;-72
2023/10/29 13:33:24;;;;;;;3.85;1.55;;;;;;;;;;5090651;28;20032;-69
2023/10/29 13:35:51;;;;;;;3.97;1.58;;;;;;;;;;5091471;28;20102;-73
2023/10/29 13:38:16;;;;;;;5.15;1.48;;;;;;;;;;5097542;28;20068;-74
2023/10/29 13:40:44;;;;;;;3.95;1.50;;;;;;;;;;5089757;28;20407;-73
2023/10/29 13:43:09;;;;;;;4.57;1.70;;;;;;;;;;5093111;28;20039;-74
2023/10/29 13:45:34;;;;;;;4.18;2.00;;;;;;;;;;5110397;28;20077;-76
2023/10/29 13:48:00;;;;;;;4.35;2.00;;;;;;;;;;5093348;28;20035;-76
2023/10/29 13:50:25;;;;;;;4.85;2.05;;;;;;;;;;5111009;28;20088;-73
2023/10/29 13:52:51;;;;;;;4.75;1.83;;;;;;;;;;5110794;28;20024;-76
2023/10/29 13:55:16;;;;;;;5.35;1.63;;;;;;;;;;5093388;28;20062;-76
2023/10/29 13:57:41;;;;;;;3.78;1.70;;;;;;;;;;5072165;28;20112;-77
2023/10/29 14:00:08;;;;;;;4.10;1.60;;;;;;;;;;5090858;28;20028;-77
2023/10/29 14:02:35;;;;;;;2.65;1.63;;;;;;;;;;5090015;28;20122;-76
2023/10/29 14:05:00;;;;;;;4.28;1.60;;;;;;;;;;5090972;28;20083;-76
2023/10/29 14:07:30;;;;;;;4.65;1.60;;;;;;;;;;5090911;28;20468;-72
2023/10/29 14:09:56;;;;;;;2.67;1.60;;;;;;;;;;5093991;28;20077;-76
2023/10/29 14:12:25;;;;;;;4.57;1.85;;;;;;;;;;5098003;28;20032;-77
2023/10/29 14:14:50;;;;;;;3.90;1.90;;;;;;;;;;5093810;28;20028;-75
2023/10/29 14:17:17;;;;;;;3.90;1.88;;;;;;;;;;5094676;28;20028;-76
2023/10/29 14:19:42;;;;;;;3.60;1.95;;;;;;;;;;5075511;28;20433;-76
2023/10/29 14:22:08;;;;;;;5.35;1.98;;;;;;;;;;5094211;28;20035;-75
2023/10/29 14:24:36;;;;;;;4.32;2.28;;;;;;;;;;5093347;28;20491;-75
2023/10/29 14:27:04;;;;;;;3.90;2.20;;;;;;;;;;5094479;28;20414;-76
2023/10/29 14:29:30;;;;;;;5.15;2.30;;;;;;;;;;5093559;28;20032;-71
2023/10/29 14:31:55;;;;;;;7.65;2.20;;;;;;;;;;5093667;28;20486;-75
2023/10/29 14:34:21;;;;;;;6.47;2.70;;;;;;;;;;5094237;28;20031;-74
2023/10/29 14:36:46;;;;;;;4.78;2.10;;;;;;;;;;5093425;28;20485;-76
2023/10/29 14:39:11;;;;;;;5.05;2.30;;;;;;;;;;5093937;28;20040;-76
2023/10/29 14:41:37;;;;;;;3.88;2.10;;;;;;;;;;5092864;28;20446;-75